Happy Avocet — OXMY2 — position and weather

sailwx.info

Track history (hours):
 
Tides and Currents Weather Stations Pressure Air Temp Water Temp Dewpoint Dewpoint Depression Visibility Wind Speed Wind Dir Waves Ship Positions

Happy Avocet

Last reported at 2018-Feb-15 11:28 UTC. Time now 2018-Feb-22 15:00 UTC.
Position N 27°60' W 092°42'.

Length 146 m; draft 7.8 m.

Type: Tanker. MMSI: 219830000.

Date/timePositionNaut miles runAvg speedWind from/ knotsBaromVisibWave heightAir tempDewpointWater temp
2018-Feb-15 11:28N 27°60' W 092°42'814.9
2018-Feb-15 10:58N 28°06' W 092°47'2014.9
2018-Feb-15 09:39N 28°19' W 093°03'314.5
2018-Feb-15 09:27N 28°21' W 093°06'614.4
2018-Feb-15 09:00N 28°25' W 093°12'714.5
2018-Feb-15 08:30N 28°29' W 093°18'814.6
2018-Feb-15 07:59N 28°33' W 093°25'714.7
2018-Feb-15 07:30N 28°37' W 093°32'714.5
2018-Feb-15 07:00N 28°41' W 093°39'714.5
2018-Feb-15 06:30N 28°46' W 093°45'714.5
2018-Feb-15 06:00N 28°50' W 093°52'714.5
2018-Feb-15 05:30N 28°54' W 093°59'814.5
2018-Feb-15 04:58N 28°58' W 094°06'714.4
2018-Feb-15 04:30N 29°02' W 094°13'714.4
2018-Feb-15 04:00N 29°06' W 094°19'714.0
2018-Feb-15 03:31N 29°09' W 094°27'714.4
2018-Feb-15 02:59N 29°14' W 094°33'613.0
2018-Feb-15 02:30N 29°19' W 094°38'611.6
2018-Feb-15 01:59N 29°21' W 094°44'611.6
2018-Feb-15 01:29N 29°24' W 094°49'511.4
2018-Feb-15 01:00N 29°29' W 094°52'510.9
2018-Feb-15 00:30N 29°34' W 094°55'611.0
2018-Feb-15 00:00N 29°39' W 094°58'510.3
2018-Feb-14 23:30N 29°43' W 095°01'5 6.9
2018-Feb-14 22:47N 29°44' W 095°07'2 7.4
2018-Feb-14 22:30N 29°44' W 095°09'  
2018-Feb-08 01:19N 29°44' W 095°12'1 2.1
2018-Feb-08 01:00N 29°45' W 095°12'3 6.3
2018-Feb-08 00:30N 29°44' W 095°08'4 7.0
2018-Feb-08 00:00N 29°46' W 095°04'4 8.0
2018-Feb-07 23:30N 29°43' W 095°01'5 9.3
2018-Feb-07 23:00N 29°39' W 094°58'611.9
2018-Feb-07 22:30N 29°34' W 094°55'611.7
2018-Feb-07 22:00N 29°29' W 094°51'46 3.7
2018-Feb-07 09:29N 29°01' W 094°09'613.1
2018-Feb-07 09:00N 28°58' W 094°03'713.1
2018-Feb-07 08:30N 28°54' W 093°57'  
Track history (hours):
 
Tides and Currents Weather Stations Pressure Air Temp Water Temp Dewpoint Dewpoint Depression Visibility Wind Speed Wind Dir Waves Ship Positions

Happy Avocet

Last reported at 2018-Feb-15 11:28 UTC. Time now 2018-Feb-22 15:00 UTC.
Position N 27°60' W 092°42'.

Length 146 m; draft 7.8 m.

Type: Tanker. MMSI: 219830000.

Date/timePositionNaut miles runAvg speedWind from/ knotsBaromVisibWave heightAir tempDewpointWater temp
2018-Feb-15 11:28N 27°60' W 092°42'814.9
2018-Feb-15 10:58N 28°06' W 092°47'2014.9
2018-Feb-15 09:39N 28°19' W 093°03'314.5
2018-Feb-15 09:27N 28°21' W 093°06'614.4
2018-Feb-15 09:00N 28°25' W 093°12'714.5
2018-Feb-15 08:30N 28°29' W 093°18'814.6
2018-Feb-15 07:59N 28°33' W 093°25'714.7
2018-Feb-15 07:30N 28°37' W 093°32'714.5
2018-Feb-15 07:00N 28°41' W 093°39'714.5
2018-Feb-15 06:30N 28°46' W 093°45'714.5
2018-Feb-15 06:00N 28°50' W 093°52'714.5
2018-Feb-15 05:30N 28°54' W 093°59'814.5
2018-Feb-15 04:58N 28°58' W 094°06'714.4
2018-Feb-15 04:30N 29°02' W 094°13'714.4
2018-Feb-15 04:00N 29°06' W 094°19'714.0
2018-Feb-15 03:31N 29°09' W 094°27'714.4
2018-Feb-15 02:59N 29°14' W 094°33'613.0
2018-Feb-15 02:30N 29°19' W 094°38'611.6
2018-Feb-15 01:59N 29°21' W 094°44'611.6
2018-Feb-15 01:29N 29°24' W 094°49'511.4
2018-Feb-15 01:00N 29°29' W 094°52'510.9
2018-Feb-15 00:30N 29°34' W 094°55'611.0
2018-Feb-15 00:00N 29°39' W 094°58'510.3
2018-Feb-14 23:30N 29°43' W 095°01'5 6.9
2018-Feb-14 22:47N 29°44' W 095°07'2 7.4
2018-Feb-14 22:30N 29°44' W 095°09'  
2018-Feb-08 01:19N 29°44' W 095°12'1 2.1
2018-Feb-08 01:00N 29°45' W 095°12'3 6.3
2018-Feb-08 00:30N 29°44' W 095°08'4 7.0
2018-Feb-08 00:00N 29°46' W 095°04'4 8.0
2018-Feb-07 23:30N 29°43' W 095°01'5 9.3
2018-Feb-07 23:00N 29°39' W 094°58'611.9
2018-Feb-07 22:30N 29°34' W 094°55'611.7
2018-Feb-07 22:00N 29°29' W 094°51'46 3.7
2018-Feb-07 09:29N 29°01' W 094°09'613.1
2018-Feb-07 09:00N 28°58' W 094°03'713.1
2018-Feb-07 08:30N 28°54' W 093°57'  

Dump ship's entire track history